createdAt,value
2022-08-25T00:00:22.637Z,58.74
2022-08-25T00:02:56.523Z,59.36
2022-08-25T00:05:32.265Z,59.16
2022-08-25T00:08:02.924Z,59.36
2022-08-25T00:10:32.527Z,59.22
2022-08-25T00:13:00.941Z,59.84
2022-08-25T00:15:32.620Z,59.51
2022-08-25T00:18:02.400Z,59.57
2022-08-25T00:20:31.160Z,59.54
2022-08-25T00:23:00.594Z,59.47
2022-08-25T00:25:30.836Z,59.61
2022-08-25T00:28:01.454Z,59.91
2022-08-25T00:30:32.848Z,59.62
2022-08-25T00:33:01.258Z,59.72
2022-08-25T00:35:30.007Z,59.73
2022-08-25T00:37:58.748Z,59.62
2022-08-25T00:40:29.059Z,59.88
2022-08-25T00:42:59.528Z,59.81
2022-08-25T00:45:28.739Z,60.17
2022-08-25T00:47:59.935Z,59.81
2022-08-25T00:50:30.686Z,59.85
2022-08-25T00:53:03.202Z,60.22
2022-08-25T00:55:37.353Z,60.00
2022-08-25T00:58:14.109Z,60.12
2022-08-25T01:00:46.790Z,60.21
2022-08-25T01:03:15.364Z,60.19
2022-08-25T01:05:44.870Z,60.14
2022-08-25T01:08:16.446Z,59.85
2022-08-25T01:10:46.976Z,60.03
2022-08-25T01:13:21.295Z,59.95
2022-08-25T01:15:51.536Z,59.86
2022-08-25T01:18:20.919Z,60.24
2022-08-25T01:20:53.701Z,60.48
2022-08-25T01:23:24.202Z,60.50
2022-08-25T01:25:59.699Z,60.80
2022-08-25T01:28:29.308Z,60.86
2022-08-25T01:30:57.704Z,60.58
2022-08-25T01:33:27.383Z,60.89
2022-08-25T01:35:57.484Z,60.93
2022-08-25T01:38:25.823Z,60.61
2022-08-25T01:40:55.165Z,60.84
2022-08-25T01:43:32.561Z,60.81
2022-08-25T01:46:01.816Z,60.81
2022-08-25T01:48:30.716Z,60.86
2022-08-25T01:51:00.444Z,60.91
2022-08-25T01:53:33.406Z,61.20
2022-08-25T01:56:11.421Z,61.26
2022-08-25T01:58:42.921Z,61.21
2022-08-25T02:01:16.402Z,61.34
2022-08-25T02:03:47.403Z,61.18
2022-08-25T02:06:22.230Z,61.21
2022-08-25T02:09:02.430Z,61.12
2022-08-25T02:11:30.808Z,61.31
2022-08-25T02:14:00.119Z,61.25
2022-08-25T02:16:31.657Z,61.55
2022-08-25T02:19:01.529Z,61.64
2022-08-25T02:21:32.840Z,61.84
2022-08-25T02:24:01.690Z,61.58
2022-08-25T02:26:30.793Z,61.99
2022-08-25T02:28:59.364Z,61.52
2022-08-25T02:31:29.240Z,61.66
2022-08-25T02:33:57.922Z,61.79
2022-08-25T02:36:27.378Z,61.49
2022-08-25T02:38:57.082Z,61.72
2022-08-25T02:41:31.068Z,61.84
2022-08-25T02:44:01.070Z,61.96
2022-08-25T02:46:31.439Z,62.30
2022-08-25T02:49:00.595Z,62.16
2022-08-25T02:51:30.866Z,62.37
2022-08-25T02:54:03.427Z,62.34
2022-08-25T02:56:33.444Z,62.74
2022-08-25T02:59:03.275Z,62.70
2022-08-25T03:01:32.562Z,62.96
2022-08-25T03:04:03.143Z,62.96
2022-08-25T03:06:31.661Z,63.06
2022-08-25T03:09:01.890Z,62.98
2022-08-25T03:11:30.319Z,63.09
2022-08-25T03:13:59.472Z,63.08
2022-08-25T03:16:28.245Z,62.97
2022-08-25T03:18:58.338Z,62.98
2022-08-25T03:21:27.857Z,62.75
2022-08-25T03:23:56.579Z,62.51
2022-08-25T03:26:59.253Z,62.41
2022-08-25T03:29:29.960Z,62.55
2022-08-25T03:32:00.454Z,62.65
2022-08-25T03:34:30.694Z,62.57
2022-08-25T03:37:00.133Z,62.58
2022-08-25T03:39:29.434Z,62.60
2022-08-25T03:41:59.604Z,62.88
2022-08-25T03:44:28.437Z,62.85
2022-08-25T03:46:57.341Z,62.92
2022-08-25T03:49:26.264Z,63.27
2022-08-25T03:51:55.855Z,63.14
2022-08-25T03:54:27.507Z,63.05
2022-08-25T03:56:56.866Z,63.18
2022-08-25T03:59:27.590Z,63.09
2022-08-25T04:01:55.983Z,63.19
2022-08-25T04:04:25.200Z,63.21
2022-08-25T04:06:53.998Z,63.17
2022-08-25T04:09:23.325Z,63.66
2022-08-25T04:11:53.353Z,63.35
2022-08-25T04:14:24.031Z,63.47
2022-08-25T04:16:54.217Z,63.60
2022-08-25T04:19:23.776Z,63.90
2022-08-25T04:21:56.683Z,63.82
2022-08-25T04:24:26.125Z,63.71
2022-08-25T04:26:54.568Z,63.95
2022-08-25T04:29:25.203Z,63.77
2022-08-25T04:31:56.783Z,64.19
2022-08-25T04:34:29.447Z,64.08
2022-08-25T04:37:01.738Z,64.26
2022-08-25T04:39:31.456Z,64.25
2022-08-25T04:42:00.876Z,64.52
2022-08-25T04:44:31.163Z,64.12
2022-08-25T04:47:01.930Z,64.34
2022-08-25T04:49:31.010Z,64.66
2022-08-25T04:51:59.339Z,64.32
2022-08-25T04:54:28.590Z,64.37
2022-08-25T04:57:01.182Z,64.57
2022-08-25T04:59:30.561Z,64.40
2022-08-25T05:02:03.317Z,64.32
2022-08-25T05:04:33.315Z,64.18
2022-08-25T05:07:03.233Z,64.47
2022-08-25T05:09:32.888Z,64.15
2022-08-25T05:12:03.081Z,64.33
2022-08-25T05:14:31.699Z,64.33
2022-08-25T05:17:02.168Z,64.44
2022-08-25T05:19:30.673Z,64.40
2022-08-25T05:21:59.438Z,64.53
2022-08-25T05:24:29.994Z,64.81
2022-08-25T05:26:58.731Z,64.91
2022-08-25T05:29:27.283Z,64.90
2022-08-25T05:31:56.182Z,64.55
2022-08-25T05:34:26.264Z,64.56
2022-08-25T05:36:55.157Z,64.61
2022-08-25T05:39:26.784Z,64.66
2022-08-25T05:41:56.219Z,64.30
2022-08-25T05:44:24.569Z,64.67
2022-08-25T05:46:53.502Z,64.71
2022-08-25T05:49:22.088Z,64.64
2022-08-25T05:51:52.184Z,64.93
2022-08-25T05:54:21.471Z,64.99
2022-08-25T05:56:49.836Z,64.96
2022-08-25T05:59:18.229Z,64.89
2022-08-25T06:02:04.015Z,65.40
2022-08-25T06:04:32.782Z,65.62
2022-08-25T06:07:02.697Z,65.87
2022-08-25T06:09:31.024Z,65.80
2022-08-25T06:11:59.979Z,65.74
2022-08-25T06:14:28.300Z,66.24
2022-08-25T06:16:57.387Z,66.43
2022-08-25T06:19:26.143Z,66.54
2022-08-25T06:21:56.726Z,66.58
2022-08-25T06:24:27.572Z,66.76
2022-08-25T06:26:57.517Z,66.91
2022-08-25T06:29:27.035Z,67.00
2022-08-25T06:31:55.525Z,67.49
2022-08-25T06:34:24.470Z,67.42
2022-08-25T06:36:53.739Z,67.34
2022-08-25T06:39:22.526Z,67.24
2022-08-25T06:41:57.304Z,67.49
2022-08-25T06:44:28.918Z,67.23
2022-08-25T06:46:57.756Z,67.96
2022-08-25T06:49:31.834Z,67.95
2022-08-25T06:52:02.570Z,67.93
2022-08-25T06:54:31.006Z,68.21
2022-08-25T06:57:00.781Z,68.14
2022-08-25T06:59:32.265Z,68.04
2022-08-25T07:02:01.384Z,68.13
2022-08-25T07:04:32.550Z,67.85
2022-08-25T07:07:00.937Z,67.83
2022-08-25T07:09:30.219Z,67.46
2022-08-25T07:12:00.101Z,67.52
2022-08-25T07:14:28.466Z,67.37
2022-08-25T07:16:58.272Z,67.16
2022-08-25T07:19:27.892Z,67.15
2022-08-25T07:21:56.198Z,66.87
2022-08-25T07:24:25.525Z,66.71
2022-08-25T07:26:53.981Z,66.18
2022-08-25T07:29:32.009Z,66.35
2022-08-25T07:32:01.890Z,66.11
2022-08-25T07:34:51.834Z,65.81
2022-08-25T07:37:47.176Z,65.87
2022-08-25T07:40:13.835Z,65.88
2022-08-25T07:42:43.169Z,65.63
2022-08-25T07:45:15.596Z,65.54
2022-08-25T07:47:51.542Z,65.10
2022-08-25T07:50:21.523Z,64.78
2022-08-25T07:52:55.224Z,64.90
2022-08-25T07:55:30.405Z,64.76
2022-08-25T07:58:00.810Z,64.56
2022-08-25T08:00:33.254Z,64.27
2022-08-25T08:03:03.893Z,64.10
2022-08-25T08:05:33.012Z,63.76
2022-08-25T08:08:02.526Z,63.77
2022-08-25T08:11:00.603Z,63.60
2022-08-25T08:13:21.073Z,63.24
2022-08-25T08:15:51.243Z,62.83
2022-08-25T08:18:20.464Z,62.82
2022-08-25T08:20:50.212Z,62.82
2022-08-25T08:23:18.827Z,61.98
2022-08-25T08:25:48.404Z,62.12
2022-08-25T08:28:16.754Z,61.71
2022-08-25T08:30:53.746Z,61.73
2022-08-25T08:33:25.728Z,61.49
2022-08-25T08:36:05.279Z,61.19
2022-08-25T08:38:34.808Z,60.87
2022-08-25T08:42:07.347Z,60.41
2022-08-25T08:44:37.339Z,60.28
2022-08-25T08:47:12.644Z,59.85
2022-08-25T08:49:53.671Z,59.39
2022-08-25T08:52:31.914Z,59.17
2022-08-25T08:55:06.439Z,59.02
2022-08-25T08:57:44.217Z,58.74
2022-08-25T09:00:13.833Z,58.31
2022-08-25T09:02:51.966Z,57.89
2022-08-25T09:05:25.980Z,57.57
2022-08-25T09:07:58.326Z,56.99
2022-08-25T09:10:33.459Z,56.25
2022-08-25T09:13:11.909Z,55.97
2022-08-25T09:16:07.928Z,55.62
2022-08-25T09:18:50.944Z,55.65
2022-08-25T09:21:31.340Z,55.24
2022-08-25T09:24:18.398Z,54.54
2022-08-25T09:27:00.606Z,53.99
2022-08-25T09:29:36.572Z,53.63
2022-08-25T09:32:08.699Z,53.16
2022-08-25T09:34:38.997Z,52.88
2022-08-25T09:37:09.068Z,52.36
2022-08-25T09:39:39.005Z,52.18
2022-08-25T09:42:08.468Z,51.79
2022-08-25T09:44:43.472Z,51.56
2022-08-25T09:47:23.420Z,50.40
2022-08-25T09:50:00.739Z,49.66
2022-08-25T09:52:37.438Z,49.32
2022-08-25T09:55:32.486Z,49.01
2022-08-25T09:58:01.239Z,48.89
2022-08-25T10:00:38.696Z,48.73
2022-08-25T10:03:15.470Z,47.42
2022-08-25T10:06:02.599Z,47.25
2022-08-25T10:08:36.999Z,48.01
2022-08-25T10:11:13.091Z,47.91
2022-08-25T10:13:45.483Z,47.59
2022-08-25T10:16:24.839Z,47.23
2022-08-25T10:19:10.361Z,46.66
2022-08-25T10:21:40.811Z,46.04
2022-08-25T10:24:12.876Z,45.43
2022-08-25T10:27:01.255Z,45.18
2022-08-25T10:29:47.074Z,44.82
2022-08-25T10:32:20.729Z,45.02
2022-08-25T10:34:52.555Z,44.75
2022-08-25T10:37:34.122Z,44.00
2022-08-25T10:40:22.774Z,43.75
2022-08-25T10:43:07.759Z,43.80
2022-08-25T10:45:46.413Z,44.11
2022-08-25T10:48:28.868Z,43.73
2022-08-25T10:51:04.062Z,44.05
2022-08-25T10:53:44.150Z,44.86
2022-08-25T10:56:19.274Z,44.63
2022-08-25T10:59:15.788Z,44.59
2022-08-25T11:01:59.784Z,44.41
2022-08-25T11:04:36.513Z,44.23
2022-08-25T11:07:10.810Z,43.55
2022-08-25T11:09:44.523Z,44.08
2022-08-25T11:12:20.228Z,43.97
2022-08-25T11:14:53.684Z,43.98
2022-08-25T11:17:26.163Z,44.25
2022-08-25T11:19:58.986Z,44.15
2022-08-25T11:22:34.445Z,44.05
2022-08-25T11:25:13.948Z,43.96
2022-08-25T11:27:48.815Z,43.83
2022-08-25T11:30:19.049Z,43.32
2022-08-25T11:32:50.638Z,42.50
2022-08-25T11:35:27.257Z,42.54
2022-08-25T11:38:10.771Z,42.70
2022-08-25T11:40:53.627Z,43.08
2022-08-25T11:43:46.119Z,42.56
2022-08-25T11:46:33.326Z,42.41
2022-08-25T11:49:16.369Z,40.85
2022-08-25T11:51:48.350Z,40.33
2022-08-25T11:54:26.547Z,40.28
2022-08-25T11:57:00.689Z,40.44
2022-08-25T12:00:12.476Z,40.14
2022-08-25T12:02:44.035Z,40.25
2022-08-25T12:05:59.963Z,41.13
2022-08-25T12:08:51.352Z,40.22
2022-08-25T12:11:46.784Z,39.32
2022-08-25T12:14:40.045Z,39.45
2022-08-25T12:17:21.262Z,39.08
2022-08-25T12:19:56.155Z,38.88
2022-08-25T12:22:55.582Z,38.59
2022-08-25T12:25:49.841Z,38.19
2022-08-25T12:28:44.143Z,38.65
2022-08-25T12:31:26.556Z,38.81
2022-08-25T12:34:10.789Z,38.48
2022-08-25T12:36:56.322Z,38.32
2022-08-25T12:39:31.894Z,38.73
2022-08-25T12:42:04.285Z,39.12
2022-08-25T12:44:42.094Z,39.22
2022-08-25T12:47:33.930Z,39.38
2022-08-25T12:50:36.205Z,39.57
2022-08-25T12:53:12.691Z,40.20
2022-08-25T12:55:45.971Z,40.32
2022-08-25T12:58:14.399Z,40.69
2022-08-25T13:01:20.190Z,40.44
2022-08-25T13:04:34.019Z,40.60
2022-08-25T13:07:22.007Z,40.01
2022-08-25T13:10:17.487Z,39.73
2022-08-25T13:12:52.575Z,39.57
2022-08-25T13:15:37.547Z,39.66
2022-08-25T13:18:19.733Z,39.50
2022-08-25T13:20:50.833Z,39.66
2022-08-25T13:23:27.218Z,39.74
2022-08-25T13:25:59.050Z,39.35
2022-08-25T13:28:32.190Z,39.79
2022-08-25T13:31:08.522Z,39.04
2022-08-25T13:33:37.617Z,39.15
2022-08-25T13:36:26.661Z,38.53
2022-08-25T13:39:13.778Z,38.19
2022-08-25T13:41:49.566Z,38.29
2022-08-25T13:44:27.125Z,38.73
2022-08-25T13:47:07.773Z,38.55
2022-08-25T13:49:37.248Z,39.04
2022-08-25T13:52:07.724Z,38.98
2022-08-25T13:54:42.347Z,39.00
2022-08-25T13:57:22.950Z,38.46
2022-08-25T13:59:58.055Z,38.21
2022-08-25T14:02:44.168Z,38.07
2022-08-25T14:05:14.186Z,38.03
2022-08-25T14:08:09.239Z,38.47
2022-08-25T14:10:46.419Z,37.98
2022-08-25T14:13:18.897Z,37.87
2022-08-25T14:15:47.683Z,37.86
2022-08-25T14:18:21.639Z,37.53
2022-08-25T14:20:58.029Z,36.90
2022-08-25T14:23:29.607Z,36.48
2022-08-25T14:26:00.450Z,36.41
2022-08-25T14:28:31.892Z,36.58
2022-08-25T14:31:05.292Z,36.47
2022-08-25T14:33:38.635Z,35.91
2022-08-25T14:36:08.825Z,35.92
2022-08-25T14:38:39.003Z,35.91
2022-08-25T14:41:11.206Z,35.67
2022-08-25T14:43:40.005Z,35.90
2022-08-25T14:46:18.341Z,36.09
2022-08-25T14:48:49.053Z,35.45
2022-08-25T14:51:18.147Z,35.27
2022-08-25T14:53:47.910Z,34.65
2022-08-25T14:56:17.659Z,34.76
2022-08-25T14:58:48.548Z,34.42
2022-08-25T15:01:28.961Z,34.09
2022-08-25T15:04:04.569Z,34.46
2022-08-25T15:06:35.606Z,34.27
2022-08-25T15:09:11.562Z,34.34
2022-08-25T15:11:46.051Z,34.21
2022-08-25T15:14:17.406Z,34.12
2022-08-25T15:16:49.374Z,33.91
2022-08-25T15:19:20.187Z,33.62
2022-08-25T15:21:49.610Z,33.27
2022-08-25T15:24:18.913Z,33.40
2022-08-25T15:29:29.687Z,33.60
2022-08-25T15:31:59.000Z,33.86
2022-08-25T15:34:27.478Z,33.78
2022-08-25T15:36:58.287Z,33.49
2022-08-25T15:39:27.389Z,33.54
2022-08-25T15:41:57.368Z,33.02
2022-08-25T15:44:29.472Z,33.03
2022-08-25T15:46:59.087Z,32.98
2022-08-25T15:49:29.852Z,32.93
2022-08-25T15:52:00.996Z,32.73
2022-08-25T15:54:31.036Z,32.40
2022-08-25T15:57:01.582Z,32.73
2022-08-25T15:59:30.778Z,32.86
2022-08-25T16:02:00.488Z,32.68
2022-08-25T16:04:30.558Z,32.85
2022-08-25T16:07:01.444Z,33.23
2022-08-25T16:09:31.323Z,32.79
2022-08-25T16:12:06.757Z,32.84
2022-08-25T16:14:38.340Z,32.80
2022-08-25T16:17:07.275Z,33.09
2022-08-25T16:19:38.248Z,33.36
2022-08-25T16:22:08.829Z,33.31
2022-08-25T16:24:40.799Z,33.98
2022-08-25T16:27:12.914Z,33.53
2022-08-25T16:29:44.209Z,33.88
2022-08-25T16:32:15.361Z,33.99
2022-08-25T16:34:44.539Z,34.09
2022-08-25T16:37:13.565Z,34.16
2022-08-25T16:39:46.595Z,34.82
2022-08-25T16:42:16.584Z,34.99
2022-08-25T16:44:45.758Z,35.47
2022-08-25T16:47:17.789Z,36.20
2022-08-25T16:49:49.090Z,36.40
2022-08-25T16:52:35.958Z,37.01
2022-08-25T16:55:16.596Z,37.42
2022-08-25T16:57:51.905Z,37.67
2022-08-25T17:00:23.432Z,37.94
2022-08-25T17:02:58.350Z,38.79
2022-08-25T17:05:28.172Z,39.47
2022-08-25T17:08:14.419Z,39.72
2022-08-25T17:10:44.432Z,39.78
2022-08-25T17:13:14.841Z,39.95
2022-08-25T17:15:45.486Z,40.61
2022-08-25T17:18:14.669Z,40.31
2022-08-25T17:20:45.734Z,40.92
2022-08-25T17:23:14.288Z,41.28
2022-08-25T17:25:43.750Z,41.04
2022-08-25T17:28:13.177Z,41.34
2022-08-25T17:30:43.212Z,41.48
2022-08-25T17:33:12.205Z,41.76
2022-08-25T17:35:43.407Z,41.84
2022-08-25T17:38:13.239Z,42.21
2022-08-25T17:40:43.251Z,42.57
2022-08-25T17:43:13.314Z,42.71
2022-08-25T17:45:43.016Z,43.49
2022-08-25T17:48:13.769Z,43.68
2022-08-25T17:50:42.787Z,43.76
2022-08-25T17:53:11.967Z,43.65
2022-08-25T17:55:43.190Z,43.93
2022-08-25T17:58:14.670Z,44.04
2022-08-25T18:00:47.059Z,44.66
2022-08-25T18:03:16.105Z,44.47
2022-08-25T18:05:45.119Z,44.29
2022-08-25T18:08:14.935Z,44.86
2022-08-25T18:10:43.814Z,44.70
2022-08-25T18:13:12.959Z,44.47
2022-08-25T18:15:45.534Z,44.63
2022-08-25T18:18:14.537Z,44.90
2022-08-25T18:20:46.900Z,45.17
2022-08-25T18:23:15.599Z,45.53
2022-08-25T18:25:44.889Z,46.07
2022-08-25T18:28:13.454Z,46.46
2022-08-25T18:30:45.722Z,46.82
2022-08-25T18:33:15.474Z,47.36
2022-08-25T18:35:44.046Z,47.17
2022-08-25T18:38:30.963Z,47.08
2022-08-25T18:41:01.339Z,47.27
2022-08-25T18:43:33.887Z,47.31
2022-08-25T18:46:06.001Z,47.49
2022-08-25T18:48:37.910Z,47.58
2022-08-25T18:51:07.830Z,47.75
2022-08-25T18:53:50.228Z,48.24
2022-08-25T18:56:21.032Z,48.36
2022-08-25T18:58:49.908Z,48.45
2022-08-25T19:01:22.122Z,48.82
2022-08-25T19:03:51.322Z,49.31
2022-08-25T19:06:21.332Z,49.19
2022-08-25T19:08:58.990Z,49.68
2022-08-25T19:11:28.370Z,49.77
2022-08-25T19:14:00.021Z,50.00
2022-08-25T19:16:35.941Z,50.29
2022-08-25T19:19:06.642Z,50.41
2022-08-25T19:21:38.594Z,50.48
2022-08-25T19:24:09.849Z,50.66
2022-08-25T19:26:38.903Z,50.82
2022-08-25T19:29:09.778Z,50.90
2022-08-25T19:31:42.255Z,51.00
2022-08-25T19:34:14.368Z,51.19
2022-08-25T19:36:44.841Z,51.32
2022-08-25T19:39:16.384Z,51.40
2022-08-25T19:41:46.109Z,51.48
2022-08-25T19:44:16.241Z,51.50
2022-08-25T19:46:46.909Z,51.65
2022-08-25T19:49:26.536Z,51.86
2022-08-25T19:51:57.106Z,51.95
2022-08-25T19:54:29.318Z,52.10
2022-08-25T19:56:59.175Z,52.36
2022-08-25T19:59:42.298Z,52.43
2022-08-25T20:02:16.592Z,52.35
2022-08-25T20:04:49.973Z,52.50
2022-08-25T20:07:20.635Z,52.64
2022-08-25T20:09:50.296Z,52.69
2022-08-25T20:12:20.539Z,53.05
2022-08-25T20:14:51.267Z,53.10
2022-08-25T20:17:41.550Z,53.22
2022-08-25T20:20:13.533Z,53.23
2022-08-25T20:22:43.427Z,53.56
2022-08-25T20:25:14.834Z,53.26
2022-08-25T20:27:49.452Z,53.65
2022-08-25T20:30:22.122Z,53.73
2022-08-25T20:32:55.200Z,53.79
2022-08-25T20:35:26.838Z,53.70
2022-08-25T20:37:57.601Z,53.92
2022-08-25T20:40:28.379Z,53.94
2022-08-25T20:42:59.703Z,54.47
2022-08-25T20:45:32.410Z,54.30
2022-08-25T20:48:02.229Z,54.72
2022-08-25T20:50:33.596Z,54.65
2022-08-25T20:53:02.548Z,54.82
2022-08-25T20:55:32.095Z,55.04
2022-08-25T20:58:09.651Z,55.14
2022-08-25T21:00:38.042Z,55.39
2022-08-25T21:03:09.484Z,55.27
2022-08-25T21:05:39.717Z,55.47
2022-08-25T21:08:10.975Z,55.55
2022-08-25T21:10:39.288Z,55.41
2022-08-25T21:13:08.948Z,55.39
2022-08-25T21:15:40.711Z,55.52
2022-08-25T21:18:11.405Z,55.53
2022-08-25T21:20:40.169Z,55.83
2022-08-25T21:23:09.208Z,55.90
2022-08-25T21:25:40.991Z,56.22
2022-08-25T21:28:10.153Z,55.97
2022-08-25T21:30:42.094Z,56.17
2022-08-25T21:33:16.820Z,56.02
2022-08-25T21:35:46.804Z,56.41
2022-08-25T21:38:15.358Z,56.28
2022-08-25T21:40:44.989Z,56.30
2022-08-25T21:43:20.382Z,56.34
2022-08-25T21:45:50.074Z,56.57
2022-08-25T21:48:20.168Z,56.64
2022-08-25T21:50:48.777Z,56.85
2022-08-25T21:53:27.005Z,56.76
2022-08-25T21:55:55.378Z,56.90
2022-08-25T21:58:24.559Z,56.87
2022-08-25T22:00:53.933Z,56.96
2022-08-25T22:03:24.467Z,57.13
2022-08-25T22:05:53.208Z,57.37
2022-08-25T22:08:22.483Z,57.29
2022-08-25T22:11:00.308Z,57.76
2022-08-25T22:13:30.332Z,57.65
2022-08-25T22:15:59.299Z,57.55
2022-08-25T22:18:31.537Z,57.51
2022-08-25T22:21:00.807Z,57.67
2022-08-25T22:23:44.247Z,57.71
2022-08-25T22:26:28.262Z,57.62
2022-08-25T22:28:59.507Z,57.78
2022-08-25T22:31:28.948Z,57.43
2022-08-25T22:34:00.021Z,57.69
2022-08-25T22:36:34.891Z,57.75
2022-08-25T22:39:05.565Z,57.65
2022-08-25T22:41:35.860Z,57.89
2022-08-25T22:44:10.632Z,57.81
2022-08-25T22:46:40.038Z,58.05
2022-08-25T22:49:10.576Z,58.23
2022-08-25T22:51:40.084Z,58.28
2022-08-25T22:54:09.612Z,58.19
2022-08-25T22:56:38.904Z,58.46
2022-08-25T22:59:10.711Z,58.45
2022-08-25T23:01:40.216Z,58.60
2022-08-25T23:04:10.779Z,58.72
2022-08-25T23:06:39.845Z,58.94
2022-08-25T23:09:10.737Z,59.11
2022-08-25T23:11:40.086Z,59.25
2022-08-25T23:14:11.057Z,59.21
2022-08-25T23:16:41.742Z,59.28
2022-08-25T23:19:13.996Z,59.37
2022-08-25T23:22:01.550Z,59.66
2022-08-25T23:24:31.086Z,59.82
2022-08-25T23:27:01.967Z,59.36
2022-08-25T23:29:31.553Z,59.46
2022-08-25T23:32:00.291Z,59.46
2022-08-25T23:34:30.142Z,59.71
2022-08-25T23:36:59.661Z,59.62
2022-08-25T23:39:33.863Z,59.39
2022-08-25T23:42:03.156Z,59.87
2022-08-25T23:44:32.546Z,59.97
2022-08-25T23:47:01.801Z,59.92
2022-08-25T23:49:32.636Z,59.69
2022-08-25T23:52:02.955Z,59.91
2022-08-25T23:54:52.722Z,59.93
2022-08-25T23:57:21.145Z,59.85
2022-08-25T23:59:52.057Z,60.03
